Terminal Aerodrome Forecast
Issued by NWS

Home | Current Version | Previous Version | Text Only | Print | Product List | Glossary On
Versions: 1 2 3 4 5 6 7 8 9 10 11 12 13 14 15 16 17 18 19 20 21 22 23 24 25 26 27 28 29 30 31 32 33 34 35 36
000
FTPA31 PHFO 051500 AAA
TAFMKK
TAF AMD
PHMK 051525Z 0515/0612 35012KT P6SM VCSH SCT025 BKN040
      TEMPO 0515/0519 35012G18KT -RA BKN025
     FM051900 02012G20KT P6SM VCSH SCT015 BKN040
     FM061000 02012KT P6SM VCSH SCT015 BKN040=

USA.gov is the U.S. government's official web portal to all federal, state and local government web resources and services.